Tahuya, Washington
Current Conditions -  °F | °C
As of 6:53 PM on Saturday 22 Nov 2014 (Local Time) from KSHN Reporting Station
Broken Clouds Broken Clouds  
Wind Chill: 40°   Ceiling: 9000
Heat Index: 45°   Visibility: 10mi
Dew Point: 41°   Wind: 10mph
Humidity: 86%   Direction: 230°SW
Pressure: 30.03"   Gusts: NA
Location:  47.37°N, 123.06°W
Report Text: KSHN 230253Z AUTO 23009KT 10SM FEW045 SCT050 BKN090 07/05 A3003 RMK AO2 RAB26E39 SLP174 P0000 60000 T00720050 51033
Loading
Personal Weather Stations






























Interactive Weather Map New forecast layout! Learn more

10-Day Weather Forecast

Advertisements
Track Severe Weather on mobile